Time;durP1;ratioP1;P1;durP2;ratioP2;P2;SDS_P1;SDS_P2;PMS_P1;PMS_P2;Temp;Humidity;BMP_temperature;BMP_pressure;BME280_temperature;BME280_humidity;BME280_pressure;Samples;Min_cycle;Max_cycle;Signal;HPM_P1;HPM_P2
2022/02/11 00:01:20;;;;;;;9.27;5.60;;;6.10;99.90;;;;;;5020032;28;20426;-57
2022/02/11 00:09:10;;;;;;;11.87;4.43;;;6.10;99.90;;;;;;5023620;28;20464;-57
2022/02/11 00:11:41;;;;;;;8.57;4.30;;;6.10;99.90;;;;;;5024578;28;21546;-55
2022/02/11 00:14:08;;;;;;;11.87;4.70;;;6.10;99.90;;;;;;5022469;28;20282;-55
2022/02/11 00:16:38;;;;;;;10.43;4.60;;;6.00;99.90;;;;;;5024048;28;20458;-56
2022/02/11 00:19:04;;;;;;;5.57;3.90;;;6.10;99.90;;;;;;5022395;28;20529;-55
2022/02/11 00:21:30;;;;;;;14.60;4.77;;;6.10;99.90;;;;;;5025052;28;20419;-54
2022/02/11 00:23:57;;;;;;;5.20;3.93;;;6.10;99.90;;;;;;5025322;28;20544;-57
2022/02/11 00:26:29;;;;;;;7.37;4.40;;;6.10;99.90;;;;;;5032271;28;20423;-56
2022/02/11 00:34:13;;;;;;;7.67;3.93;;;6.00;99.90;;;;;;5019523;28;20980;-57
2022/02/11 00:36:50;;;;;;;6.73;3.40;;;6.00;99.90;;;;;;5024509;28;20500;-53
2022/02/11 01:06:08;;;;;;;5.63;3.23;;;5.80;99.90;;;;;;5041669;28;20777;-56
2022/02/11 01:08:34;;;;;;;4.07;2.97;;;5.80;99.90;;;;;;5026168;28;20908;-57
2022/02/11 01:11:00;;;;;;;9.03;3.00;;;5.90;99.90;;;;;;5026060;28;20541;-55
2022/02/11 01:13:26;;;;;;;4.10;2.43;;;5.80;99.90;;;;;;5037400;28;20476;-56
2022/02/11 01:15:59;;;;;;;3.37;2.53;;;5.80;99.90;;;;;;5028468;28;20450;-57
2022/02/11 01:18:25;;;;;;;2.70;2.50;;;5.80;99.90;;;;;;5031316;28;20191;-56
2022/02/11 01:20:58;;;;;;;4.63;2.33;;;5.80;99.90;;;;;;5040866;28;20410;-56
2022/02/11 01:34:53;;;;;;;3.47;2.70;;;5.80;99.90;;;;;;4982333;28;20434;-56
2022/02/11 01:37:48;;;;;;;6.23;2.23;;;5.80;99.90;;;;;;5026140;28;20450;-57
2022/02/11 01:56:04;;;;;;;7.70;3.77;;;5.90;99.90;;;;;;5022639;28;21004;-56
2022/02/11 01:59:37;;;;;;;4.83;2.90;;;5.90;99.90;;;;;;5025918;28;20419;-56
2022/02/11 02:08:53;;;;;;;4.17;2.47;;;5.80;99.90;;;;;;5023862;28;20890;-54
2022/02/11 02:25:11;;;;;;;5.00;2.30;;;5.70;99.90;;;;;;5041395;23;20490;-60
2022/02/11 03:35:38;;;;;;;2.40;2.20;;;4.80;99.90;;;;;;5023871;28;20461;-60
2022/02/11 03:49:17;;;;;;;1.77;1.67;;;4.60;99.90;;;;;;5024626;28;20995;-60
2022/02/11 04:55:56;;;;;;;3.80;1.90;;;3.80;99.90;;;;;;5025090;28;20669;-60
2022/02/11 05:01:06;;;;;;;1.30;1.20;;;3.80;99.90;;;;;;5027066;28;20511;-60
2022/02/11 05:03:34;;;;;;;1.33;1.10;;;3.80;99.90;;;;;;5027128;28;20946;-61
2022/02/11 05:06:00;;;;;;;1.50;1.40;;;3.70;99.90;;;;;;5025328;28;20175;-61
2022/02/11 05:08:27;;;;;;;1.40;1.30;;;3.70;99.90;;;;;;5026380;28;20430;-60
2022/02/11 05:10:55;;;;;;;1.50;1.40;;;3.70;99.90;;;;;;5030021;28;20303;-61
2022/02/11 05:13:21;;;;;;;1.33;1.23;;;3.70;99.90;;;;;;5022397;28;20994;-61
2022/02/11 05:15:47;;;;;;;2.73;1.57;;;3.70;99.90;;;;;;5024308;28;20619;-61
2022/02/11 05:18:13;;;;;;;1.33;1.23;;;3.60;99.90;;;;;;5020760;28;20937;-61
2022/02/11 05:20:42;;;;;;;1.30;1.20;;;3.60;99.90;;;;;;5025358;28;20425;-61
2022/02/11 05:23:09;;;;;;;0.90;0.90;;;3.60;99.90;;;;;;5017028;28;20470;-60
2022/02/11 05:25:39;;;;;;;1.10;1.10;;;3.50;99.90;;;;;;5018186;28;20508;-59
2022/02/11 05:28:07;;;;;;;1.10;1.10;;;3.50;99.90;;;;;;5022358;28;20509;-58
2022/02/11 05:30:33;;;;;;;1.30;1.20;;;3.50;99.90;;;;;;5022944;28;20438;-60
2022/02/11 05:33:03;;;;;;;1.10;1.10;;;3.50;99.90;;;;;;5025874;28;20856;-60
2022/02/11 05:35:30;;;;;;;1.10;1.10;;;3.40;99.90;;;;;;5022642;28;20529;-61
2022/02/11 05:37:55;;;;;;;1.13;1.03;;;3.40;99.90;;;;;;5025567;28;20461;-60
2022/02/11 05:40:21;;;;;;;1.30;1.20;;;3.30;99.90;;;;;;5022182;28;22533;-60
2022/02/11 05:42:47;;;;;;;1.23;1.10;;;3.30;99.90;;;;;;5022080;28;20242;-61
2022/02/11 05:45:13;;;;;;;1.13;1.13;;;3.30;99.90;;;;;;5019156;28;20454;-61
2022/02/11 05:47:38;;;;;;;1.00;1.00;;;3.20;99.90;;;;;;5018416;28;20274;-60
2022/02/11 05:50:05;;;;;;;0.90;0.90;;;3.20;99.90;;;;;;5011138;28;20238;-60
2022/02/11 05:52:32;;;;;;;0.90;0.90;;;3.10;99.90;;;;;;5028536;28;20253;-59
2022/02/11 05:54:58;;;;;;;0.80;0.80;;;3.00;99.90;;;;;;5026899;28;20501;-61
2022/02/11 05:57:23;;;;;;;1.20;1.10;;;3.00;99.90;;;;;;5027600;28;20907;-60
2022/02/11 05:59:51;;;;;;;1.00;1.00;;;3.00;99.90;;;;;;5028130;28;20812;-61
2022/02/11 06:02:18;;;;;;;1.30;1.20;;;2.90;99.90;;;;;;5024284;28;20216;-60
2022/02/11 06:04:44;;;;;;;1.40;1.30;;;2.90;99.90;;;;;;5025098;28;20469;-59
2022/02/11 06:07:09;;;;;;;1.10;1.10;;;2.90;99.90;;;;;;5026163;28;20970;-59
2022/02/11 06:09:35;;;;;;;1.20;1.20;;;2.90;99.90;;;;;;5026038;28;20439;-60
2022/02/11 06:12:02;;;;;;;1.40;1.30;;;2.90;99.90;;;;;;5028213;28;20235;-60
2022/02/11 06:14:27;;;;;;;1.60;1.47;;;2.80;99.90;;;;;;5034120;28;20208;-59
2022/02/11 06:16:53;;;;;;;1.67;1.57;;;2.80;99.90;;;;;;5030677;28;20470;-60
2022/02/11 06:19:19;;;;;;;1.83;1.67;;;2.80;99.90;;;;;;5027844;28;20175;-60
2022/02/11 06:21:44;;;;;;;4.00;1.40;;;2.70;99.90;;;;;;5026195;28;20188;-60
2022/02/11 06:24:10;;;;;;;1.90;1.80;;;2.60;99.90;;;;;;5020798;28;20304;-59
2022/02/11 06:26:36;;;;;;;1.50;1.40;;;2.60;99.90;;;;;;5029690;28;20175;-60
2022/02/11 06:29:02;;;;;;;1.97;1.77;;;2.60;99.90;;;;;;5029087;28;20320;-61
2022/02/11 06:31:27;;;;;;;1.60;1.50;;;2.60;99.90;;;;;;5029424;28;20183;-60
2022/02/11 06:33:53;;;;;;;1.57;1.47;;;2.60;99.90;;;;;;5024276;28;20481;-60
2022/02/11 06:36:19;;;;;;;1.80;1.70;;;2.60;99.90;;;;;;5032430;28;20182;-59
2022/02/11 06:38:45;;;;;;;2.00;1.70;;;2.50;99.90;;;;;;5030253;28;20421;-58
2022/02/11 06:41:11;;;;;;;1.67;1.57;;;2.50;99.90;;;;;;5029971;28;20481;-60
2022/02/11 06:43:37;;;;;;;2.13;1.50;;;2.50;99.90;;;;;;5030003;28;21009;-59
2022/02/11 06:46:03;;;;;;;1.83;1.73;;;2.50;99.90;;;;;;5026786;28;20330;-61
2022/02/11 06:48:31;;;;;;;2.33;2.20;;;2.50;99.90;;;;;;5026218;28;20207;-60
2022/02/11 06:50:57;;;;;;;2.57;1.87;;;2.40;99.90;;;;;;5029294;28;20422;-60
2022/02/11 06:53:22;;;;;;;2.30;2.20;;;2.40;99.90;;;;;;5034097;28;20432;-60
2022/02/11 06:55:48;;;;;;;3.60;2.30;;;2.40;99.90;;;;;;5026305;28;20454;-61
2022/02/11 06:58:15;;;;;;;2.13;1.93;;;2.40;99.90;;;;;;5028932;28;20716;-59
2022/02/11 07:00:45;;;;;;;3.50;2.43;;;2.40;99.90;;;;;;5028835;28;20177;-60
2022/02/11 07:03:12;;;;;;;5.27;2.50;;;2.40;99.90;;;;;;5026365;28;20857;-62
2022/02/11 07:05:38;;;;;;;4.73;2.50;;;2.40;99.90;;;;;;5026883;28;20469;-61
2022/02/11 07:08:05;;;;;;;3.47;2.90;;;2.40;99.90;;;;;;5029926;28;20484;-59
2022/02/11 07:10:31;;;;;;;5.33;2.60;;;2.40;99.90;;;;;;5025792;28;20479;-61
2022/02/11 07:12:57;;;;;;;3.53;2.53;;;2.40;99.90;;;;;;5028701;28;20950;-59
2022/02/11 07:15:23;;;;;;;2.77;2.50;;;2.40;99.90;;;;;;5029931;28;20211;-60
2022/02/11 07:17:48;;;;;;;2.90;2.63;;;2.40;99.90;;;;;;5032061;28;20454;-59
2022/02/11 07:20:14;;;;;;;3.67;2.87;;;2.40;99.90;;;;;;5028337;28;20176;-62
2022/02/11 07:22:40;;;;;;;3.40;3.00;;;2.40;99.90;;;;;;5024348;28;20206;-60
2022/02/11 07:25:08;;;;;;;3.50;2.90;;;2.40;99.90;;;;;;5032569;28;20680;-61
2022/02/11 07:27:34;;;;;;;6.63;3.07;;;2.40;99.90;;;;;;5028004;28;20262;-60
2022/02/11 07:29:59;;;;;;;4.83;3.13;;;2.40;99.90;;;;;;5027415;28;20426;-60
2022/02/11 07:32:25;;;;;;;8.23;3.13;;;2.50;99.90;;;;;;5031696;28;20468;-60
2022/02/11 07:34:52;;;;;;;7.10;3.10;;;2.50;99.90;;;;;;5028162;28;20192;-60
2022/02/11 07:37:18;;;;;;;3.77;3.40;;;2.50;99.90;;;;;;5027476;28;20971;-61
2022/02/11 07:39:44;;;;;;;6.43;3.20;;;2.60;99.90;;;;;;5030230;28;20774;-61
2022/02/11 07:42:10;;;;;;;6.43;3.17;;;2.60;99.90;;;;;;5028757;28;20438;-61
2022/02/11 07:44:36;;;;;;;5.27;3.10;;;2.60;99.90;;;;;;5027806;28;20694;-60
2022/02/11 07:47:02;;;;;;;3.30;3.00;;;2.60;99.90;;;;;;5025833;28;21010;-60
2022/02/11 07:49:27;;;;;;;4.00;3.10;;;2.70;99.90;;;;;;5023015;28;20696;-60
2022/02/11 07:51:53;;;;;;;6.63;2.87;;;2.60;98.60;;;;;;5012591;28;20188;-61
2022/02/11 07:54:19;;;;;;;3.57;3.03;;;2.60;97.30;;;;;;5029124;28;20615;-60
2022/02/11 07:56:44;;;;;;;8.90;3.53;;;2.60;97.60;;;;;;5025310;28;20199;-60
2022/02/11 07:59:10;;;;;;;5.03;3.50;;;2.60;98.50;;;;;;5028028;28;20608;-60
2022/02/11 08:01:36;;;;;;;5.07;3.77;;;2.60;98.30;;;;;;5028537;28;20206;-60
2022/02/11 08:04:01;;;;;;;5.47;3.80;;;2.60;96.40;;;;;;5027661;28;20213;-60
2022/02/11 08:06:27;;;;;;;5.43;3.63;;;2.50;96.80;;;;;;5027877;28;20245;-60
2022/02/11 08:08:53;;;;;;;5.27;3.80;;;2.50;97.80;;;;;;5027367;28;20396;-60
2022/02/11 08:11:18;;;;;;;4.53;3.60;;;2.50;98.50;;;;;;5030054;28;20183;-59
2022/02/11 08:13:44;;;;;;;4.93;3.80;;;2.50;98.80;;;;;;5027678;28;20926;-60
2022/02/11 08:16:09;;;;;;;5.07;3.90;;;2.50;98.70;;;;;;5034092;28;20179;-61
2022/02/11 08:18:35;;;;;;;6.97;3.70;;;2.40;96.80;;;;;;5025539;28;20219;-60
2022/02/11 08:21:01;;;;;;;7.00;3.63;;;2.40;97.00;;;;;;5015091;28;20183;-59
2022/02/11 08:23:27;;;;;;;4.53;3.80;;;2.40;92.40;;;;;;5027260;28;20182;-60
2022/02/11 08:25:53;;;;;;;3.70;3.00;;;2.30;92.70;;;;;;5028579;28;20458;-60
2022/02/11 08:28:19;;;;;;;4.80;3.37;;;2.30;91.70;;;;;;5027688;28;20220;-59
2022/02/11 08:30:46;;;;;;;5.77;4.00;;;2.20;91.40;;;;;;5030629;28;20443;-60
2022/02/11 08:33:12;;;;;;;3.87;3.47;;;2.30;87.00;;;;;;5028690;28;20186;-60
2022/02/11 08:35:38;;;;;;;3.90;2.90;;;2.20;86.80;;;;;;5027911;28;20505;-60
2022/02/11 08:38:03;;;;;;;5.37;3.63;;;2.20;90.50;;;;;;5026922;28;20333;-60
2022/02/11 08:40:29;;;;;;;8.83;3.53;;;2.10;91.60;;;;;;5027311;28;20168;-61
2022/02/11 08:42:54;;;;;;;4.20;3.23;;;2.10;91.70;;;;;;5027006;28;20185;-61
2022/02/11 08:45:20;;;;;;;3.60;3.17;;;2.10;90.00;;;;;;5028281;28;20195;-59
2022/02/11 08:47:46;;;;;;;4.83;3.57;;;2.20;90.10;;;;;;5026731;28;20187;-60
2022/02/11 08:50:18;;;;;;;5.07;3.23;;;2.20;89.20;;;;;;5024879;28;20610;-60
2022/02/11 08:52:44;;;;;;;4.70;3.70;;;2.30;89.40;;;;;;5027280;28;20185;-59
2022/02/11 08:55:10;;;;;;;3.73;3.23;;;2.40;86.70;;;;;;5027764;28;20453;-60
2022/02/11 08:57:43;;;;;;;6.53;3.57;;;2.40;84.30;;;;;;5025810;28;20836;-59
2022/02/11 09:00:10;;;;;;;3.73;3.43;;;2.50;80.20;;;;;;5027876;28;20187;-60
2022/02/11 09:02:35;;;;;;;5.90;3.60;;;2.50;80.40;;;;;;5028071;28;20418;-60
2022/02/11 09:05:02;;;;;;;6.80;3.63;;;2.50;79.90;;;;;;5027733;28;20440;-60
2022/02/11 09:07:28;;;;;;;8.07;3.93;;;2.50;76.70;;;;;;5022707;28;20441;-61
2022/02/11 09:09:53;;;;;;;3.40;3.10;;;2.50;74.90;;;;;;5027015;28;20429;-61
2022/02/11 09:12:19;;;;;;;9.90;4.23;;;2.50;76.40;;;;;;5031677;28;20306;-59
2022/02/11 09:14:44;;;;;;;6.50;3.33;;;2.50;80.90;;;;;;5027130;28;20198;-60
2022/02/11 09:17:10;;;;;;;8.47;4.07;;;2.50;75.30;;;;;;5025247;28;20200;-60
2022/02/11 09:19:36;;;;;;;4.10;3.27;;;2.60;73.90;;;;;;5026932;28;20180;-60
2022/02/11 09:22:02;;;;;;;5.37;2.90;;;2.60;74.00;;;;;;5024999;28;20182;-63
2022/02/11 09:24:28;;;;;;;5.60;3.60;;;2.70;71.50;;;;;;5028489;28;20199;-60
2022/02/11 09:26:53;;;;;;;6.40;3.10;;;2.80;70.20;;;;;;5030427;28;20445;-59
2022/02/11 09:29:19;;;;;;;5.40;3.27;;;2.90;68.80;;;;;;5028779;28;20553;-58
2022/02/11 09:31:45;;;;;;;3.20;2.90;;;3.00;71.30;;;;;;5030346;28;20179;-58
2022/02/11 09:34:12;;;;;;;3.17;2.80;;;3.10;70.90;;;;;;5034273;28;20526;-56
2022/02/11 09:36:39;;;;;;;6.33;3.30;;;3.20;65.20;;;;;;5030110;28;20208;-59
2022/02/11 09:39:10;;;;;;;5.47;3.13;;;3.10;64.70;;;;;;5029934;28;20919;-56
2022/02/11 09:41:37;;;;;;;6.43;3.10;;;3.10;63.20;;;;;;5029676;28;20430;-60
2022/02/11 09:44:05;;;;;;;6.20;3.10;;;2.90;63.60;;;;;;5025832;28;20643;-58
2022/02/11 09:46:33;;;;;;;5.10;2.80;;;2.80;62.30;;;;;;5031084;28;20446;-57
2022/02/11 09:49:00;;;;;;;12.93;3.27;;;2.70;63.60;;;;;;5028640;28;20434;-56
2022/02/11 09:51:26;;;;;;;5.33;3.27;;;2.60;64.00;;;;;;5028647;28;20619;-57
2022/02/11 09:53:52;;;;;;;7.40;3.20;;;2.50;64.90;;;;;;5034060;28;20432;-58
2022/02/11 09:56:18;;;;;;;6.20;3.73;;;2.60;64.00;;;;;;5029540;28;20425;-59
2022/02/11 09:58:51;;;;;;;5.23;3.57;;;2.80;65.50;;;;;;5028879;28;20760;-59
2022/02/11 10:01:21;;;;;;;8.20;3.23;;;3.00;65.60;;;;;;5025611;28;20487;-60
2022/02/11 10:04:07;;;;;;;3.87;3.30;;;3.20;64.70;;;;;;5029185;28;20784;-60
2022/02/11 10:06:33;;;;;;;3.37;3.17;;;3.30;64.40;;;;;;5030527;28;20426;-59
2022/02/11 10:08:59;;;;;;;4.40;3.07;;;3.40;63.20;;;;;;5028184;28;20433;-60
2022/02/11 10:11:26;;;;;;;5.60;3.63;;;3.50;61.70;;;;;;5027668;28;20175;-59
2022/02/11 10:13:53;;;;;;;9.33;3.03;;;3.40;60.50;;;;;;5030939;28;20419;-60
2022/02/11 10:16:23;;;;;;;7.27;3.80;;;3.20;61.10;;;;;;5029467;28;20506;-59
2022/02/11 10:18:51;;;;;;;7.20;3.93;;;3.20;62.10;;;;;;5028999;28;20441;-61
2022/02/11 10:21:23;;;;;;;4.40;3.33;;;3.20;63.50;;;;;;5038155;28;20512;-60
2022/02/11 10:23:51;;;;;;;3.83;2.90;;;3.40;64.90;;;;;;5036199;28;20884;-59
2022/02/11 10:26:22;;;;;;;4.90;3.07;;;3.70;65.20;;;;;;5029728;28;20455;-58
2022/02/11 10:28:49;;;;;;;5.57;3.00;;;3.90;63.80;;;;;;5029923;28;20417;-60
2022/02/11 10:31:19;;;;;;;4.20;3.00;;;4.10;62.30;;;;;;5028758;28;20509;-58
2022/02/11 10:34:11;;;;;;;2.40;2.30;;;4.30;60.30;;;;;;5030279;28;20438;-59
2022/02/11 10:36:39;;;;;;;6.60;2.60;;;4.40;59.30;;;;;;5030372;28;20540;-60
2022/02/11 10:39:19;;;;;;;6.13;3.13;;;4.40;57.40;;;;;;5032372;28;20420;-61
2022/02/11 10:42:06;;;;;;;2.63;2.43;;;4.30;57.20;;;;;;5026133;28;20440;-59
2022/02/11 10:44:34;;;;;;;7.10;3.30;;;4.10;57.40;;;;;;5028243;28;20445;-59
2022/02/11 10:47:14;;;;;;;4.87;3.07;;;3.90;58.20;;;;;;5030613;28;20410;-61
2022/02/11 10:49:43;;;;;;;2.77;2.57;;;3.80;58.80;;;;;;5024340;28;20434;-61
2022/02/11 10:52:21;;;;;;;5.20;2.87;;;3.90;59.60;;;;;;5030260;28;20878;-60
2022/02/11 10:54:49;;;;;;;7.83;3.30;;;4.20;60.60;;;;;;5037147;28;20448;-59
2022/02/11 10:57:16;;;;;;;6.53;3.33;;;4.40;59.90;;;;;;5029841;28;20524;-62
2022/02/11 10:59:44;;;;;;;9.30;3.17;;;4.50;60.10;;;;;;5023149;28;20564;-60
2022/02/11 11:02:16;;;;;;;5.50;3.30;;;4.60;59.20;;;;;;5014205;28;20583;-60
2022/02/11 11:04:42;;;;;;;4.57;3.27;;;4.60;58.50;;;;;;5035985;28;20530;-61
2022/02/11 11:07:09;;;;;;;3.40;3.13;;;4.60;57.30;;;;;;5031367;28;20458;-61
2022/02/11 11:09:36;;;;;;;6.23;2.70;;;4.60;57.00;;;;;;5022765;28;20267;-60
2022/02/11 11:12:03;;;;;;;4.70;2.77;;;4.70;57.70;;;;;;5016336;28;20805;-58
2022/02/11 11:14:30;;;;;;;4.43;3.03;;;4.90;57.60;;;;;;5028038;28;20442;-60
2022/02/11 11:17:01;;;;;;;5.77;3.33;;;5.10;56.80;;;;;;5026161;28;20465;-61
2022/02/11 11:19:36;;;;;;;4.80;3.40;;;5.40;56.80;;;;;;5017652;28;20430;-59
2022/02/11 11:22:11;;;;;;;3.40;2.93;;;5.60;54.50;;;;;;5022474;28;20425;-61
2022/02/11 11:24:51;;;;;;;6.27;2.80;;;5.70;53.70;;;;;;5023817;28;20457;-60
2022/02/11 11:27:41;;;;;;;9.90;2.43;;;6.00;54.70;;;;;;5025432;28;20946;-61
2022/02/11 11:30:29;;;;;;;4.17;2.87;;;6.30;52.70;;;;;;5038270;28;20442;-60
2022/02/11 11:33:07;;;;;;;5.10;2.40;;;6.60;51.10;;;;;;5029900;28;20522;-61
2022/02/11 11:35:32;;;;;;;5.57;3.13;;;6.80;49.80;;;;;;5022375;28;20954;-60
2022/02/11 11:38:25;;;;;;;6.30;3.00;;;7.00;49.10;;;;;;5027060;28;20461;-62
2022/02/11 11:41:08;;;;;;;2.17;2.07;;;7.40;48.70;;;;;;5027504;28;20608;-61
2022/02/11 11:43:33;;;;;;;4.33;2.27;;;7.90;48.20;;;;;;5030016;28;20425;-61
2022/02/11 11:46:18;;;;;;;7.17;3.10;;;8.50;47.30;;;;;;5025905;28;20441;-61
2022/02/11 11:49:05;;;;;;;6.43;2.80;;;8.80;44.40;;;;;;5027268;28;20570;-62
2022/02/11 11:51:51;;;;;;;2.30;2.10;;;9.10;45.30;;;;;;5024071;28;20874;-62
2022/02/11 11:54:22;;;;;;;10.63;2.50;;;9.60;45.50;;;;;;5022397;28;20450;-61
2022/02/11 11:56:55;;;;;;;3.80;2.30;;;9.60;43.30;;;;;;5023985;28;20476;-62
2022/02/11 11:59:47;;;;;;;8.40;2.10;;;9.90;43.80;;;;;;5017838;28;20502;-63
2022/02/11 12:02:17;;;;;;;4.10;2.10;;;10.10;41.30;;;;;;5021604;28;20438;-61
2022/02/11 12:04:43;;;;;;;5.03;2.43;;;10.40;41.00;;;;;;5017882;28;20821;-62
2022/02/11 12:07:18;;;;;;;5.20;2.30;;;10.80;40.80;;;;;;5019853;28;20430;-60
2022/02/11 12:09:47;;;;;;;5.43;2.30;;;11.20;41.10;;;;;;5014786;28;20183;-62
2022/02/11 12:12:15;;;;;;;5.73;2.20;;;11.70;40.70;;;;;;5019550;28;20862;-62
2022/02/11 12:14:43;;;;;;;7.30;2.00;;;11.80;40.40;;;;;;5018356;28;20454;-62
2022/02/11 12:17:11;;;;;;;5.03;2.10;;;12.10;39.00;;;;;;5016654;28;20502;-60
2022/02/11 12:19:37;;;;;;;2.40;2.07;;;12.50;38.90;;;;;;5019410;28;20438;-61
2022/02/11 12:22:06;;;;;;;3.63;2.17;;;12.90;37.80;;;;;;5021258;28;20477;-61
2022/02/11 12:27:30;;;;;;;2.80;1.90;;;13.90;37.70;;;;;;5016736;28;20539;-63
2022/02/11 12:30:04;;;;;;;2.60;1.83;;;14.40;36.30;;;;;;5018109;28;20938;-61
2022/02/11 12:32:43;;;;;;;2.67;1.80;;;14.00;36.90;;;;;;5030318;28;20454;-62
2022/02/11 12:35:31;;;;;;;3.77;2.10;;;12.90;37.70;;;;;;5018550;28;20774;-59
2022/02/11 12:38:00;;;;;;;7.00;1.97;;;12.00;39.90;;;;;;5022768;28;20476;-58
2022/02/11 12:40:35;;;;;;;5.70;1.60;;;11.00;39.50;;;;;;5022241;28;20434;-59
2022/02/11 12:43:03;;;;;;;4.40;2.23;;;10.70;40.50;;;;;;5020421;28;21112;-60
2022/02/11 12:45:34;;;;;;;3.50;1.70;;;10.40;40.30;;;;;;5021699;28;20958;-60
2022/02/11 12:48:02;;;;;;;3.70;2.17;;;10.00;40.60;;;;;;5026172;28;21285;-60
2022/02/11 12:50:30;;;;;;;4.90;1.90;;;9.70;42.00;;;;;;5027150;28;20419;-60
2022/02/11 12:53:01;;;;;;;5.97;1.90;;;9.20;42.80;;;;;;5027913;28;20418;-61
2022/02/11 12:55:30;;;;;;;7.53;2.00;;;8.50;43.40;;;;;;5025853;28;21075;-61
2022/02/11 12:57:58;;;;;;;6.30;2.20;;;8.20;44.40;;;;;;5022755;28;20454;-61
2022/02/11 13:00:25;;;;;;;5.67;1.90;;;8.60;44.50;;;;;;5021645;28;20474;-61
2022/02/11 13:02:57;;;;;;;5.20;2.50;;;9.60;43.00;;;;;;5020113;28;20414;-61
2022/02/11 13:05:24;;;;;;;4.47;3.00;;;10.40;40.80;;;;;;5018628;28;20454;-61
2022/02/11 13:07:56;;;;;;;3.20;2.13;;;10.90;39.20;;;;;;5017465;28;21005;-62
2022/02/11 13:10:32;;;;;;;3.87;1.83;;;10.70;39.20;;;;;;5022759;28;20427;-61
2022/02/11 13:13:00;;;;;;;3.90;2.23;;;10.10;39.80;;;;;;5023883;28;21124;-61
2022/02/11 13:15:36;;;;;;;7.03;2.00;;;9.50;41.60;;;;;;5024941;28;20453;-60
2022/02/11 13:18:09;;;;;;;9.93;2.50;;;8.90;41.40;;;;;;5021431;28;20871;-60
2022/02/11 13:20:38;;;;;;;3.60;2.17;;;8.10;42.40;;;;;;5028879;28;20460;-60
2022/02/11 13:23:04;;;;;;;7.60;2.23;;;7.40;43.90;;;;;;5030161;28;20422;-61
2022/02/11 13:25:30;;;;;;;3.27;1.77;;;6.90;44.90;;;;;;5027736;28;20468;-61
2022/02/11 13:27:56;;;;;;;5.07;1.80;;;6.40;45.60;;;;;;5030702;28;20787;-60
2022/02/11 13:30:40;;;;;;;5.13;1.93;;;6.00;46.30;;;;;;5035616;28;20509;-60
2022/02/11 13:33:25;;;;;;;3.17;2.00;;;5.80;47.30;;;;;;5034007;28;20430;-60
2022/02/11 13:35:54;;;;;;;4.70;1.90;;;5.60;47.20;;;;;;5031101;28;20860;-60
2022/02/11 13:38:27;;;;;;;3.13;1.60;;;5.40;47.60;;;;;;5028645;28;20464;-60
2022/02/11 13:41:01;;;;;;;7.13;2.23;;;5.30;48.60;;;;;;5030652;28;20847;-60
2022/02/11 13:43:48;;;;;;;6.27;2.70;;;5.20;49.20;;;;;;5045396;28;20469;-59
2022/02/11 13:46:35;;;;;;;4.13;2.03;;;5.20;49.80;;;;;;5025828;28;20513;-60
2022/02/11 13:49:10;;;;;;;7.90;2.17;;;5.10;49.90;;;;;;5030908;28;20414;-60
2022/02/11 13:51:37;;;;;;;5.63;2.40;;;5.20;50.50;;;;;;5030164;28;20500;-60
2022/02/11 13:54:17;;;;;;;8.57;2.70;;;5.20;50.60;;;;;;5029213;28;20457;-60
2022/02/11 13:56:48;;;;;;;4.80;2.40;;;5.20;50.10;;;;;;5025993;28;20769;-60
2022/02/11 13:59:18;;;;;;;3.43;2.17;;;5.10;50.90;;;;;;5026249;28;20758;-59
2022/02/11 14:01:45;;;;;;;3.03;1.97;;;5.00;51.40;;;;;;5029987;28;20419;-60
2022/02/11 14:04:17;;;;;;;5.80;2.30;;;5.00;51.30;;;;;;5028154;28;20564;-58
2022/02/11 14:06:48;;;;;;;2.70;1.93;;;5.00;50.90;;;;;;5027920;28;20438;-58
2022/02/11 14:09:37;;;;;;;5.80;1.70;;;5.00;51.00;;;;;;5032265;28;20426;-58
2022/02/11 14:12:07;;;;;;;4.30;2.03;;;5.00;50.80;;;;;;5031318;28;20791;-60
2022/02/11 14:14:33;;;;;;;4.70;2.00;;;5.00;50.90;;;;;;5028600;28;21069;-59
2022/02/11 14:17:00;;;;;;;7.00;1.80;;;4.90;50.70;;;;;;5026327;28;20461;-61
2022/02/11 14:19:27;;;;;;;2.67;1.73;;;4.80;50.50;;;;;;5027653;28;20423;-59
2022/02/11 14:22:02;;;;;;;3.00;1.73;;;4.70;49.20;;;;;;5023227;28;20434;-61
2022/02/11 14:24:29;;;;;;;5.07;2.20;;;4.60;49.50;;;;;;5025917;28;20493;-60
2022/02/11 14:26:55;;;;;;;3.53;1.70;;;4.50;49.90;;;;;;5028501;28;20418;-61
2022/02/11 14:29:22;;;;;;;5.90;1.83;;;5.00;50.30;;;;;;5022535;28;20446;-61
2022/02/11 14:31:49;;;;;;;4.23;1.97;;;5.30;48.90;;;;;;5027176;28;20191;-59
2022/02/11 14:34:15;;;;;;;5.70;2.63;;;5.30;48.00;;;;;;5021986;28;20533;-58
2022/02/11 14:36:43;;;;;;;2.90;2.10;;;5.20;48.20;;;;;;5026317;28;20430;-58
2022/02/11 14:39:13;;;;;;;6.87;2.57;;;5.00;48.70;;;;;;5023220;28;20430;-59
2022/02/11 14:41:49;;;;;;;4.23;2.30;;;4.90;49.90;;;;;;5028247;28;20429;-59
2022/02/11 14:44:16;;;;;;;4.87;2.10;;;4.80;49.60;;;;;;5028074;28;20942;-59
2022/02/11 14:46:43;;;;;;;3.63;1.60;;;4.70;49.70;;;;;;5020293;28;20433;-58
2022/02/11 14:49:09;;;;;;;7.30;1.87;;;4.60;49.40;;;;;;5026296;28;20513;-59
2022/02/11 14:51:35;;;;;;;5.50;1.90;;;4.60;49.60;;;;;;5028820;28;20418;-60
2022/02/11 14:54:11;;;;;;;3.50;1.93;;;4.70;50.00;;;;;;5028202;28;20652;-59
2022/02/11 14:56:40;;;;;;;6.10;2.30;;;5.00;50.40;;;;;;5026034;28;20456;-61
2022/02/11 14:59:09;;;;;;;8.13;2.77;;;5.70;49.60;;;;;;5024818;28;20434;-61
2022/02/11 15:01:35;;;;;;;7.10;3.17;;;5.80;48.10;;;;;;5030478;28;20442;-61
2022/02/11 15:04:01;;;;;;;5.97;2.03;;;5.70;48.10;;;;;;5027978;28;20972;-61
2022/02/11 15:06:27;;;;;;;5.53;2.30;;;5.40;47.30;;;;;;5042893;28;20439;-60
2022/02/11 15:08:53;;;;;;;9.97;2.37;;;5.20;48.30;;;;;;5025934;28;20669;-60
2022/02/11 15:11:18;;;;;;;4.57;2.77;;;5.00;49.30;;;;;;5025133;28;20414;-60
2022/02/11 15:13:45;;;;;;;4.90;2.67;;;4.90;50.10;;;;;;5014473;28;20695;-61
2022/02/11 15:16:10;;;;;;;6.33;2.33;;;4.80;50.80;;;;;;5024872;28;20227;-60
2022/02/11 15:18:36;;;;;;;6.10;2.30;;;4.60;50.90;;;;;;5028412;28;20549;-60
2022/02/11 15:21:06;;;;;;;6.13;2.37;;;4.50;51.40;;;;;;5031181;28;20180;-60
2022/02/11 15:23:36;;;;;;;3.10;1.90;;;4.50;51.80;;;;;;5025771;28;20176;-60
2022/02/11 15:26:04;;;;;;;5.07;2.27;;;4.40;52.20;;;;;;5027633;28;20585;-61
2022/02/11 15:28:31;;;;;;;4.40;2.27;;;4.40;52.10;;;;;;5026475;28;20434;-60
2022/02/11 15:30:57;;;;;;;3.53;2.10;;;4.40;50.90;;;;;;5027296;28;20434;-60
2022/02/11 15:33:23;;;;;;;3.60;2.53;;;4.30;50.70;;;;;;5024070;28;20435;-60
2022/02/11 15:35:48;;;;;;;3.00;2.33;;;4.30;51.00;;;;;;5021235;28;20515;-61
2022/02/11 15:38:15;;;;;;;2.83;1.90;;;4.20;51.20;;;;;;5022802;28;20458;-61
2022/02/11 15:40:40;;;;;;;13.27;2.20;;;4.10;50.50;;;;;;5027833;28;20570;-61
2022/02/11 15:43:06;;;;;;;6.43;2.50;;;4.10;50.20;;;;;;5028422;28;20411;-61
2022/02/11 15:45:32;;;;;;;7.00;2.20;;;4.00;50.30;;;;;;5026091;28;20198;-60
2022/02/11 15:47:58;;;;;;;2.67;2.43;;;3.90;49.90;;;;;;5024044;28;20431;-60
2022/02/11 15:50:24;;;;;;;6.93;3.07;;;3.90;50.10;;;;;;5021364;28;20188;-61
2022/02/11 15:52:52;;;;;;;3.73;2.07;;;3.80;50.50;;;;;;5025762;28;20791;-63
2022/02/11 15:55:18;;;;;;;18.47;5.63;;;3.70;50.80;;;;;;5019022;28;20468;-61
2022/02/11 15:57:44;;;;;;;6.40;3.40;;;3.70;51.00;;;;;;5018100;28;21002;-62
2022/02/11 16:00:10;;;;;;;3.83;2.90;;;3.60;51.00;;;;;;5021138;28;20429;-63
2022/02/11 16:02:37;;;;;;;4.53;3.00;;;3.60;51.20;;;;;;5022568;28;20210;-62
2022/02/11 16:05:05;;;;;;;4.00;2.70;;;3.50;51.40;;;;;;5024412;28;20844;-60
2022/02/11 16:07:31;;;;;;;4.07;2.57;;;3.50;51.30;;;;;;5020697;28;20445;-63
2022/02/11 16:09:56;;;;;;;8.50;3.20;;;3.50;51.30;;;;;;5021150;28;20437;-61
2022/02/11 16:12:22;;;;;;;7.87;3.43;;;3.40;51.00;;;;;;5022684;28;20187;-61
2022/02/11 16:14:48;;;;;;;6.43;3.40;;;3.40;51.20;;;;;;5020958;28;20204;-61
2022/02/11 16:17:14;;;;;;;6.97;3.70;;;3.40;51.60;;;;;;5021237;28;20202;-61
2022/02/11 16:19:40;;;;;;;5.13;3.43;;;3.40;51.80;;;;;;5017425;28;21106;-61
2022/02/11 16:22:06;;;;;;;3.97;3.50;;;3.30;51.90;;;;;;5020996;28;20428;-61
2022/02/11 16:24:35;;;;;;;8.50;3.40;;;3.30;52.10;;;;;;5021152;28;20470;-60
2022/02/11 16:27:01;;;;;;;5.70;3.27;;;3.30;52.20;;;;;;5023691;28;20432;-60
2022/02/11 16:29:27;;;;;;;8.60;3.80;;;3.20;51.80;;;;;;5026139;28;20430;-58
2022/02/11 16:31:53;;;;;;;8.20;4.50;;;3.20;52.10;;;;;;5022153;28;20780;-56
2022/02/11 16:34:19;;;;;;;6.87;3.63;;;3.20;52.30;;;;;;5025484;28;21010;-60
2022/02/11 16:36:45;;;;;;;10.37;3.50;;;3.20;52.60;;;;;;5020735;28;20442;-66
2022/02/11 16:39:15;;;;;;;6.43;3.53;;;3.20;52.40;;;;;;5043715;28;20465;-61
2022/02/11 16:41:40;;;;;;;7.10;3.63;;;3.10;52.50;;;;;;5031371;28;20414;-60
2022/02/11 16:44:06;;;;;;;4.67;3.67;;;3.10;53.30;;;;;;5031684;28;20946;-58
2022/02/11 16:46:34;;;;;;;6.67;3.90;;;3.10;53.10;;;;;;5044433;28;20463;-60
2022/02/11 16:49:03;;;;;;;5.90;3.70;;;3.00;53.30;;;;;;5026076;28;20540;-58
2022/02/11 16:51:30;;;;;;;11.30;6.53;;;2.90;53.40;;;;;;5029783;28;20850;-59
2022/02/11 16:53:55;;;;;;;6.70;4.40;;;2.90;53.80;;;;;;5032244;28;20418;-59
2022/02/11 16:56:21;;;;;;;7.53;4.90;;;2.90;53.90;;;;;;5037557;28;20507;-60
2022/02/11 16:58:47;;;;;;;5.20;4.20;;;2.80;54.00;;;;;;5039819;28;20218;-60